sensor_id;sensor_type;location;lat;lon;timestamp;temperature;humidity
16060;DHT22;8134;49.552;7.632;2023-04-25T05:09:41;10.00;99.90
16060;DHT22;8134;49.552;7.632;2023-04-25T05:12:07;10.00;99.90
16060;DHT22;8134;49.552;7.632;2023-04-25T05:14:32;10.00;99.90
16060;DHT22;8134;49.552;7.632;2023-04-25T05:16:58;10.00;99.90
16060;DHT22;8134;49.552;7.632;2023-04-25T05:19:23;10.10;99.90
16060;DHT22;8134;49.552;7.632;2023-04-25T05:21:49;10.10;99.90
16060;DHT22;8134;49.552;7.632;2023-04-25T05:24:15;9.90;99.90
16060;DHT22;8134;49.552;7.632;2023-04-25T05:26:41;10.10;99.90
16060;DHT22;8134;49.552;7.632;2023-04-25T05:29:06;10.10;99.90
16060;DHT22;8134;49.552;7.632;2023-04-25T05:31:32;10.20;99.90
16060;DHT22;8134;49.552;7.632;2023-04-25T05:33:57;10.30;99.90
16060;DHT22;8134;49.552;7.632;2023-04-25T05:36:23;10.20;99.90
16060;DHT22;8134;49.552;7.632;2023-04-25T05:38:48;10.20;99.90
16060;DHT22;8134;49.552;7.632;2023-04-25T05:41:14;10.30;99.90
16060;DHT22;8134;49.552;7.632;2023-04-25T05:43:39;10.30;99.90
16060;DHT22;8134;49.552;7.632;2023-04-25T05:46:10;10.30;99.90
16060;DHT22;8134;49.552;7.632;2023-04-25T05:48:37;10.30;99.90
16060;DHT22;8134;49.552;7.632;2023-04-25T05:51:03;10.30;99.90
16060;DHT22;8134;49.552;7.632;2023-04-25T05:53:28;10.30;99.90
16060;DHT22;8134;49.552;7.632;2023-04-25T05:55:54;10.50;99.90
16060;DHT22;8134;49.552;7.632;2023-04-25T05:58:21;10.30;99.90
16060;DHT22;8134;49.552;7.632;2023-04-25T06:00:48;10.30;99.90
16060;DHT22;8134;49.552;7.632;2023-04-25T06:03:15;10.30;99.90
16060;DHT22;8134;49.552;7.632;2023-04-25T06:05:43;10.40;99.90
16060;DHT22;8134;49.552;7.632;2023-04-25T06:08:11;10.40;99.90
16060;DHT22;8134;49.552;7.632;2023-04-25T06:10:38;10.40;99.90
16060;DHT22;8134;49.552;7.632;2023-04-25T06:13:05;10.40;99.90
16060;DHT22;8134;49.552;7.632;2023-04-25T06:15:32;10.50;99.90
16060;DHT22;8134;49.552;7.632;2023-04-25T06:17:58;10.40;99.90
16060;DHT22;8134;49.552;7.632;2023-04-25T06:20:25;10.40;99.90
16060;DHT22;8134;49.552;7.632;2023-04-25T06:22:52;10.40;99.90
16060;DHT22;8134;49.552;7.632;2023-04-25T06:25:19;10.50;99.90
16060;DHT22;8134;49.552;7.632;2023-04-25T06:27:45;10.40;99.90
16060;DHT22;8134;49.552;7.632;2023-04-25T06:30:12;10.50;99.90
16060;DHT22;8134;49.552;7.632;2023-04-25T06:32:39;10.50;99.90
16060;DHT22;8134;49.552;7.632;2023-04-25T06:35:05;10.50;99.90
16060;DHT22;8134;49.552;7.632;2023-04-25T06:37:32;10.50;99.90
16060;DHT22;8134;49.552;7.632;2023-04-25T06:40:08;10.50;99.90
16060;DHT22;8134;49.552;7.632;2023-04-25T06:42:35;10.60;99.90
16060;DHT22;8134;49.552;7.632;2023-04-25T06:45:00;10.50;99.90
16060;DHT22;8134;49.552;7.632;2023-04-25T06:47:26;10.60;99.90
16060;DHT22;8134;49.552;7.632;2023-04-25T06:49:53;10.60;99.90
16060;DHT22;8134;49.552;7.632;2023-04-25T06:52:18;10.60;99.90
16060;DHT22;8134;49.552;7.632;2023-04-25T06:54:44;10.60;99.90
16060;DHT22;8134;49.552;7.632;2023-04-25T06:57:10;10.70;99.90
16060;DHT22;8134;49.552;7.632;2023-04-25T06:59:35;10.70;99.90
16060;DHT22;8134;49.552;7.632;2023-04-25T07:02:01;11.30;99.90
16060;DHT22;8134;49.552;7.632;2023-04-25T07:04:26;10.80;99.90
16060;DHT22;8134;49.552;7.632;2023-04-25T07:06:52;10.80;99.90
16060;DHT22;8134;49.552;7.632;2023-04-25T07:09:18;10.80;99.90
16060;DHT22;8134;49.552;7.632;2023-04-25T07:11:43;10.90;99.90
16060;DHT22;8134;49.552;7.632;2023-04-25T07:14:10;10.90;99.90
16060;DHT22;8134;49.552;7.632;2023-04-25T07:16:37;11.00;99.90
16060;DHT22;8134;49.552;7.632;2023-04-25T07:19:03;11.00;99.90
16060;DHT22;8134;49.552;7.632;2023-04-25T07:21:36;11.00;99.90
16060;DHT22;8134;49.552;7.632;2023-04-25T07:24:04;11.00;99.90
16060;DHT22;8134;49.552;7.632;2023-04-25T07:26:31;11.00;99.90
16060;DHT22;8134;49.552;7.632;2023-04-25T07:29:03;11.00;99.90
16060;DHT22;8134;49.552;7.632;2023-04-25T07:31:31;11.00;99.90
16060;DHT22;8134;49.552;7.632;2023-04-25T07:33:58;11.00;99.90
16060;DHT22;8134;49.552;7.632;2023-04-25T07:36:25;10.80;99.90
16060;DHT22;8134;49.552;7.632;2023-04-25T07:38:52;10.80;99.90
16060;DHT22;8134;49.552;7.632;2023-04-25T07:41:19;10.90;99.90
16060;DHT22;8134;49.552;7.632;2023-04-25T07:43:45;10.80;99.90
16060;DHT22;8134;49.552;7.632;2023-04-25T07:46:20;10.50;99.90
16060;DHT22;8134;49.552;7.632;2023-04-25T07:48:50;10.10;99.90
16060;DHT22;8134;49.552;7.632;2023-04-25T07:51:29;9.90;99.90
16060;DHT22;8134;49.552;7.632;2023-04-25T07:54:02;9.80;99.90
16060;DHT22;8134;49.552;7.632;2023-04-25T07:56:34;9.70;99.90
16060;DHT22;8134;49.552;7.632;2023-04-25T07:59:01;9.60;99.90
16060;DHT22;8134;49.552;7.632;2023-04-25T08:01:26;9.60;99.90
16060;DHT22;8134;49.552;7.632;2023-04-25T08:03:52;9.60;99.90
16060;DHT22;8134;49.552;7.632;2023-04-25T08:06:58;9.60;99.90
16060;DHT22;8134;49.552;7.632;2023-04-25T08:09:31;9.70;99.90
16060;DHT22;8134;49.552;7.632;2023-04-25T08:12:01;9.70;99.90
16060;DHT22;8134;49.552;7.632;2023-04-25T08:14:31;9.60;99.90
16060;DHT22;8134;49.552;7.632;2023-04-25T08:17:01;9.60;99.90
16060;DHT22;8134;49.552;7.632;2023-04-25T08:19:29;9.50;99.90
16060;DHT22;8134;49.552;7.632;2023-04-25T08:22:02;9.40;99.90
16060;DHT22;8134;49.552;7.632;2023-04-25T08:24:39;9.30;99.90
16060;DHT22;8134;49.552;7.632;2023-04-25T08:27:05;9.30;99.90
16060;DHT22;8134;49.552;7.632;2023-04-25T08:29:33;9.30;99.90
16060;DHT22;8134;49.552;7.632;2023-04-25T08:32:09;9.40;99.90
16060;DHT22;8134;49.552;7.632;2023-04-25T08:34:36;9.50;99.90
16060;DHT22;8134;49.552;7.632;2023-04-25T08:37:07;9.50;99.90
16060;DHT22;8134;49.552;7.632;2023-04-25T08:39:33;9.80;99.90
16060;DHT22;8134;49.552;7.632;2023-04-25T08:42:06;9.50;99.90
16060;DHT22;8134;49.552;7.632;2023-04-25T08:44:39;9.50;99.90
16060;DHT22;8134;49.552;7.632;2023-04-25T08:47:05;9.50;99.90
16060;DHT22;8134;49.552;7.632;2023-04-25T08:49:46;9.60;99.90
16060;DHT22;8134;49.552;7.632;2023-04-25T08:52:15;9.80;99.90
16060;DHT22;8134;49.552;7.632;2023-04-25T08:54:46;9.60;99.90
16060;DHT22;8134;49.552;7.632;2023-04-25T08:57:21;9.60;99.90
16060;DHT22;8134;49.552;7.632;2023-04-25T09:00:06;9.50;99.90
16060;DHT22;8134;49.552;7.632;2023-04-25T09:02:39;9.50;99.90
16060;DHT22;8134;49.552;7.632;2023-04-25T09:05:14;9.50;99.90
16060;DHT22;8134;49.552;7.632;2023-04-25T09:07:44;9.60;99.90
16060;DHT22;8134;49.552;7.632;2023-04-25T09:10:11;9.80;99.90
16060;DHT22;8134;49.552;7.632;2023-04-25T09:12:42;10.00;99.90
16060;DHT22;8134;49.552;7.632;2023-04-25T09:15:09;10.00;99.90
16060;DHT22;8134;49.552;7.632;2023-04-25T09:17:41;10.00;99.90
16060;DHT22;8134;49.552;7.632;2023-04-25T09:20:11;10.10;99.90
16060;DHT22;8134;49.552;7.632;2023-04-25T09:22:38;10.10;99.90
16060;DHT22;8134;49.552;7.632;2023-04-25T09:25:09;10.20;99.90
16060;DHT22;8134;49.552;7.632;2023-04-25T09:27:36;10.30;99.90
16060;DHT22;8134;49.552;7.632;2023-04-25T09:30:03;10.30;99.90
16060;DHT22;8134;49.552;7.632;2023-04-25T09:32:30;10.40;99.90
16060;DHT22;8134;49.552;7.632;2023-04-25T09:34:56;10.40;99.90
16060;DHT22;8134;49.552;7.632;2023-04-25T09:37:27;10.50;99.90
16060;DHT22;8134;49.552;7.632;2023-04-25T09:40:14;10.40;99.90
16060;DHT22;8134;49.552;7.632;2023-04-25T09:42:44;10.50;99.90
16060;DHT22;8134;49.552;7.632;2023-04-25T09:45:17;10.70;99.90
16060;DHT22;8134;49.552;7.632;2023-04-25T09:47:48;10.70;99.90
16060;DHT22;8134;49.552;7.632;2023-04-25T09:50:20;10.60;99.90
16060;DHT22;8134;49.552;7.632;2023-04-25T09:58:28;11.00;99.90
16060;DHT22;8134;49.552;7.632;2023-04-25T10:13:21;11.30;99.90
16060;DHT22;8134;49.552;7.632;2023-04-25T10:25:07;10.90;99.90
16060;DHT22;8134;49.552;7.632;2023-04-25T10:27:33;10.80;99.90
16060;DHT22;8134;49.552;7.632;2023-04-25T10:35:27;10.50;99.90
16060;DHT22;8134;49.552;7.632;2023-04-25T10:38:01;10.60;99.90
16060;DHT22;8134;49.552;7.632;2023-04-25T10:40:33;10.60;99.90
16060;DHT22;8134;49.552;7.632;2023-04-25T10:45:50;10.90;99.90
16060;DHT22;8134;49.552;7.632;2023-04-25T10:48:29;10.80;99.90
16060;DHT22;8134;49.552;7.632;2023-04-25T10:51:17;10.80;99.90
16060;DHT22;8134;49.552;7.632;2023-04-25T10:53:59;10.70;99.90
16060;DHT22;8134;49.552;7.632;2023-04-25T11:04:53;11.00;99.90
16060;DHT22;8134;49.552;7.632;2023-04-25T11:12:33;10.60;99.90
16060;DHT22;8134;49.552;7.632;2023-04-25T11:15:03;10.60;99.90
16060;DHT22;8134;49.552;7.632;2023-04-25T11:17:29;10.70;99.90
16060;DHT22;8134;49.552;7.632;2023-04-25T11:20:04;10.70;99.90
16060;DHT22;8134;49.552;7.632;2023-04-25T11:22:53;10.70;99.90
16060;DHT22;8134;49.552;7.632;2023-04-25T11:25:20;10.70;99.90
16060;DHT22;8134;49.552;7.632;2023-04-25T11:27:55;10.80;99.90
16060;DHT22;8134;49.552;7.632;2023-04-25T11:30:27;10.80;99.90
16060;DHT22;8134;49.552;7.632;2023-04-25T11:32:56;10.90;99.90
16060;DHT22;8134;49.552;7.632;2023-04-25T11:35:21;11.00;99.90
16060;DHT22;8134;49.552;7.632;2023-04-25T11:37:50;11.30;99.90
16060;DHT22;8134;49.552;7.632;2023-04-25T11:40:17;11.50;99.90
16060;DHT22;8134;49.552;7.632;2023-04-25T11:42:45;11.70;99.90
16060;DHT22;8134;49.552;7.632;2023-04-25T11:45:11;11.70;99.90
16060;DHT22;8134;49.552;7.632;2023-04-25T11:47:36;11.70;99.90
16060;DHT22;8134;49.552;7.632;2023-04-25T11:50:04;11.80;99.90
16060;DHT22;8134;49.552;7.632;2023-04-25T11:52:43;11.80;99.90
16060;DHT22;8134;49.552;7.632;2023-04-25T11:55:12;11.70;99.90
16060;DHT22;8134;49.552;7.632;2023-04-25T11:57:44;11.80;99.90
16060;DHT22;8134;49.552;7.632;2023-04-25T12:00:56;11.90;99.90
16060;DHT22;8134;49.552;7.632;2023-04-25T12:07:10;12.20;99.90
16060;DHT22;8134;49.552;7.632;2023-04-25T12:10:16;12.30;99.90
16060;DHT22;8134;49.552;7.632;2023-04-25T12:16:41;12.30;99.90
16060;DHT22;8134;49.552;7.632;2023-04-25T12:22:56;12.20;99.90
16060;DHT22;8134;49.552;7.632;2023-04-25T12:37:51;11.60;99.90
16060;DHT22;8134;49.552;7.632;2023-04-25T12:40:17;11.70;99.90
16060;DHT22;8134;49.552;7.632;2023-04-25T12:49:07;11.90;99.90
16060;DHT22;8134;49.552;7.632;2023-04-25T12:51:57;12.00;99.90
16060;DHT22;8134;49.552;7.632;2023-04-25T13:01:27;11.80;99.90
16060;DHT22;8134;49.552;7.632;2023-04-25T13:10:41;11.70;99.90
16060;DHT22;8134;49.552;7.632;2023-04-25T13:22:38;11.90;99.90
16060;DHT22;8134;49.552;7.632;2023-04-25T13:25:30;11.80;99.20
16060;DHT22;8134;49.552;7.632;2023-04-25T13:28:19;11.90;99.90
16060;DHT22;8134;49.552;7.632;2023-04-25T13:30:45;11.80;99.90
16060;DHT22;8134;49.552;7.632;2023-04-25T13:33:42;11.90;99.90
16060;DHT22;8134;49.552;7.632;2023-04-25T13:36:12;11.90;99.90
16060;DHT22;8134;49.552;7.632;2023-04-25T13:38:58;11.90;99.90
16060;DHT22;8134;49.552;7.632;2023-04-25T13:41:33;12.00;99.90
16060;DHT22;8134;49.552;7.632;2023-04-25T13:44:05;11.90;99.90
16060;DHT22;8134;49.552;7.632;2023-04-25T13:46:31;11.90;99.90
16060;DHT22;8134;49.552;7.632;2023-04-25T13:48:57;11.90;99.90
16060;DHT22;8134;49.552;7.632;2023-04-25T13:51:24;12.00;99.90
16060;DHT22;8134;49.552;7.632;2023-04-25T13:53:51;12.20;99.90
16060;DHT22;8134;49.552;7.632;2023-04-25T13:56:18;12.30;99.90
16060;DHT22;8134;49.552;7.632;2023-04-25T13:58:45;12.20;99.90
16060;DHT22;8134;49.552;7.632;2023-04-25T14:01:11;12.30;99.90
16060;DHT22;8134;49.552;7.632;2023-04-25T14:03:38;12.30;98.90
16060;DHT22;8134;49.552;7.632;2023-04-25T14:06:03;12.30;98.80
16060;DHT22;8134;49.552;7.632;2023-04-25T14:08:29;12.30;97.90
16060;DHT22;8134;49.552;7.632;2023-04-25T14:10:55;12.20;99.10
16060;DHT22;8134;49.552;7.632;2023-04-25T14:13:22;12.10;97.50
16060;DHT22;8134;49.552;7.632;2023-04-25T14:15:49;11.90;97.30
16060;DHT22;8134;49.552;7.632;2023-04-25T14:18:15;11.80;97.80
16060;DHT22;8134;49.552;7.632;2023-04-25T14:20:42;12.10;97.80
16060;DHT22;8134;49.552;7.632;2023-04-25T14:23:07;12.20;97.70
16060;DHT22;8134;49.552;7.632;2023-04-25T14:25:34;12.20;98.30
16060;DHT22;8134;49.552;7.632;2023-04-25T14:28:01;12.30;98.50
16060;DHT22;8134;49.552;7.632;2023-04-25T14:30:28;12.30;97.80
16060;DHT22;8134;49.552;7.632;2023-04-25T14:32:55;12.30;96.70
16060;DHT22;8134;49.552;7.632;2023-04-25T14:35:22;12.20;95.40
16060;DHT22;8134;49.552;7.632;2023-04-25T14:37:48;12.20;95.90
16060;DHT22;8134;49.552;7.632;2023-04-25T14:40:14;12.20;95.80
16060;DHT22;8134;49.552;7.632;2023-04-25T14:42:41;12.10;95.10
16060;DHT22;8134;49.552;7.632;2023-04-25T14:45:07;12.10;95.20
16060;DHT22;8134;49.552;7.632;2023-04-25T14:47:36;12.20;96.50
16060;DHT22;8134;49.552;7.632;2023-04-25T14:50:02;12.30;95.90
16060;DHT22;8134;49.552;7.632;2023-04-25T14:52:28;12.10;95.70
16060;DHT22;8134;49.552;7.632;2023-04-25T14:54:53;12.20;97.10
16060;DHT22;8134;49.552;7.632;2023-04-25T14:57:19;12.40;97.90
16060;DHT22;8134;49.552;7.632;2023-04-25T14:59:44;12.40;96.50
16060;DHT22;8134;49.552;7.632;2023-04-25T15:02:11;12.40;95.50
16060;DHT22;8134;49.552;7.632;2023-04-25T15:04:36;12.50;97.40
16060;DHT22;8134;49.552;7.632;2023-04-25T15:07:02;12.40;95.40
16060;DHT22;8134;49.552;7.632;2023-04-25T15:09:28;12.50;96.10
16060;DHT22;8134;49.552;7.632;2023-04-25T15:11:53;12.60;96.60
16060;DHT22;8134;49.552;7.632;2023-04-25T15:14:19;12.50;95.50
16060;DHT22;8134;49.552;7.632;2023-04-25T15:16:44;12.40;95.10
16060;DHT22;8134;49.552;7.632;2023-04-25T15:19:10;12.20;94.80
16060;DHT22;8134;49.552;7.632;2023-04-25T15:21:36;12.10;95.30
16060;DHT22;8134;49.552;7.632;2023-04-25T15:24:02;12.00;95.00
16060;DHT22;8134;49.552;7.632;2023-04-25T15:26:27;12.10;96.30
16060;DHT22;8134;49.552;7.632;2023-04-25T15:28:53;12.10;95.10
16060;DHT22;8134;49.552;7.632;2023-04-25T15:31:19;12.10;95.70
16060;DHT22;8134;49.552;7.632;2023-04-25T15:33:44;12.00;95.10
16060;DHT22;8134;49.552;7.632;2023-04-25T15:36:10;12.00;94.80
16060;DHT22;8134;49.552;7.632;2023-04-25T15:38:36;11.90;95.00
16060;DHT22;8134;49.552;7.632;2023-04-25T15:41:01;11.80;95.20
16060;DHT22;8134;49.552;7.632;2023-04-25T15:43:27;11.90;94.50
16060;DHT22;8134;49.552;7.632;2023-04-25T15:45:53;12.10;95.80
16060;DHT22;8134;49.552;7.632;2023-04-25T15:48:19;12.20;95.40
16060;DHT22;8134;49.552;7.632;2023-04-25T15:50:46;12.30;94.50
16060;DHT22;8134;49.552;7.632;2023-04-25T15:53:12;12.30;94.30
16060;DHT22;8134;49.552;7.632;2023-04-25T15:55:37;12.40;93.40
16060;DHT22;8134;49.552;7.632;2023-04-25T15:58:03;12.10;93.90
16060;DHT22;8134;49.552;7.632;2023-04-25T16:00:31;12.10;95.20
16060;DHT22;8134;49.552;7.632;2023-04-25T16:02:59;12.10;95.70
16060;DHT22;8134;49.552;7.632;2023-04-25T16:05:25;12.20;96.00
16060;DHT22;8134;49.552;7.632;2023-04-25T16:07:52;12.30;96.60
16060;DHT22;8134;49.552;7.632;2023-04-25T16:10:18;12.30;98.30
16060;DHT22;8134;49.552;7.632;2023-04-25T16:12:47;12.20;95.90
16060;DHT22;8134;49.552;7.632;2023-04-25T16:15:14;12.10;95.20
16060;DHT22;8134;49.552;7.632;2023-04-25T16:17:40;12.00;93.80
16060;DHT22;8134;49.552;7.632;2023-04-25T16:20:07;12.10;95.90
16060;DHT22;8134;49.552;7.632;2023-04-25T16:22:35;12.10;95.40
16060;DHT22;8134;49.552;7.632;2023-04-25T16:25:02;12.10;96.40
16060;DHT22;8134;49.552;7.632;2023-04-25T16:27:27;12.00;94.40
16060;DHT22;8134;49.552;7.632;2023-04-25T16:29:53;11.90;94.20
16060;DHT22;8134;49.552;7.632;2023-04-25T16:32:20;11.70;92.90
16060;DHT22;8134;49.552;7.632;2023-04-25T16:34:46;11.70;94.50
16060;DHT22;8134;49.552;7.632;2023-04-25T16:37:12;11.80;94.50
16060;DHT22;8134;49.552;7.632;2023-04-25T16:39:39;11.90;95.10
16060;DHT22;8134;49.552;7.632;2023-04-25T16:42:06;12.00;94.90
16060;DHT22;8134;49.552;7.632;2023-04-25T16:44:32;12.00;96.90
16060;DHT22;8134;49.552;7.632;2023-04-25T16:47:03;11.90;98.40
16060;DHT22;8134;49.552;7.632;2023-04-25T16:49:30;11.70;99.10
16060;DHT22;8134;49.552;7.632;2023-04-25T16:51:57;11.70;99.40
16060;DHT22;8134;49.552;7.632;2023-04-25T16:54:23;11.60;99.90
16060;DHT22;8134;49.552;7.632;2023-04-25T16:56:51;11.60;99.90
16060;DHT22;8134;49.552;7.632;2023-04-25T16:59:18;11.50;99.90
16060;DHT22;8134;49.552;7.632;2023-04-25T17:01:44;11.50;99.50
16060;DHT22;8134;49.552;7.632;2023-04-25T17:04:11;11.50;99.90
16060;DHT22;8134;49.552;7.632;2023-04-25T17:06:37;11.50;97.70
16060;DHT22;8134;49.552;7.632;2023-04-25T17:09:03;11.60;98.40
16060;DHT22;8134;49.552;7.632;2023-04-25T17:11:30;11.60;97.90
16060;DHT22;8134;49.552;7.632;2023-04-25T17:13:56;11.60;98.00
16060;DHT22;8134;49.552;7.632;2023-04-25T17:16:22;11.60;98.20
16060;DHT22;8134;49.552;7.632;2023-04-25T17:18:48;11.60;98.60
16060;DHT22;8134;49.552;7.632;2023-04-25T17:21:17;11.60;97.00
16060;DHT22;8134;49.552;7.632;2023-04-25T17:23:44;11.50;94.60
16060;DHT22;8134;49.552;7.632;2023-04-25T17:26:11;11.40;93.70
16060;DHT22;8134;49.552;7.632;2023-04-25T17:28:37;11.50;95.20
16060;DHT22;8134;49.552;7.632;2023-04-25T17:31:04;11.40;94.90
16060;DHT22;8134;49.552;7.632;2023-04-25T17:33:30;11.50;95.40
16060;DHT22;8134;49.552;7.632;2023-04-25T17:35:56;11.50;95.60
16060;DHT22;8134;49.552;7.632;2023-04-25T17:38:22;11.40;94.00
16060;DHT22;8134;49.552;7.632;2023-04-25T17:40:48;11.40;94.50
16060;DHT22;8134;49.552;7.632;2023-04-25T17:43:15;11.40;95.50
16060;DHT22;8134;49.552;7.632;2023-04-25T17:45:42;11.40;93.90
16060;DHT22;8134;49.552;7.632;2023-04-25T17:48:08;11.40;94.00
16060;DHT22;8134;49.552;7.632;2023-04-25T17:50:35;11.50;94.30
16060;DHT22;8134;49.552;7.632;2023-04-25T17:53:00;11.40;97.50
16060;DHT22;8134;49.552;7.632;2023-04-25T17:55:30;11.20;96.70
16060;DHT22;8134;49.552;7.632;2023-04-25T17:57:56;11.10;94.50
16060;DHT22;8134;49.552;7.632;2023-04-25T18:00:22;11.20;96.10
16060;DHT22;8134;49.552;7.632;2023-04-25T18:02:48;11.10;97.80
16060;DHT22;8134;49.552;7.632;2023-04-25T18:05:16;11.00;95.90
16060;DHT22;8134;49.552;7.632;2023-04-25T18:07:42;11.00;97.60
16060;DHT22;8134;49.552;7.632;2023-04-25T18:10:08;10.90;97.50
16060;DHT22;8134;49.552;7.632;2023-04-25T18:12:36;11.00;98.40
16060;DHT22;8134;49.552;7.632;2023-04-25T18:15:03;10.90;97.50
16060;DHT22;8134;49.552;7.632;2023-04-25T18:17:32;10.90;97.80
16060;DHT22;8134;49.552;7.632;2023-04-25T18:19:58;10.90;97.80
16060;DHT22;8134;49.552;7.632;2023-04-25T18:22:26;10.90;98.90
16060;DHT22;8134;49.552;7.632;2023-04-25T18:24:53;10.80;99.50
16060;DHT22;8134;49.552;7.632;2023-04-25T18:27:18;10.80;99.90
16060;DHT22;8134;49.552;7.632;2023-04-25T18:29:44;10.70;99.90
16060;DHT22;8134;49.552;7.632;2023-04-25T18:32:11;10.60;99.90
16060;DHT22;8134;49.552;7.632;2023-04-25T18:34:37;10.60;99.90
16060;DHT22;8134;49.552;7.632;2023-04-25T18:37:05;10.50;99.90
16060;DHT22;8134;49.552;7.632;2023-04-25T18:39:32;10.40;99.90
16060;DHT22;8134;49.552;7.632;2023-04-25T18:41:58;10.40;99.90
16060;DHT22;8134;49.552;7.632;2023-04-25T18:44:25;10.30;99.90
16060;DHT22;8134;49.552;7.632;2023-04-25T18:46:52;10.20;99.90
16060;DHT22;8134;49.552;7.632;2023-04-25T18:49:19;10.20;99.90
16060;DHT22;8134;49.552;7.632;2023-04-25T18:51:44;10.10;99.90
16060;DHT22;8134;49.552;7.632;2023-04-25T18:54:10;10.10;99.90
16060;DHT22;8134;49.552;7.632;2023-04-25T18:56:36;10.00;99.90
16060;DHT22;8134;49.552;7.632;2023-04-25T18:59:01;10.00;99.90
16060;DHT22;8134;49.552;7.632;2023-04-25T19:01:27;10.00;99.90
16060;DHT22;8134;49.552;7.632;2023-04-25T19:03:52;10.00;99.90
16060;DHT22;8134;49.552;7.632;2023-04-25T19:06:25;9.80;99.90
16060;DHT22;8134;49.552;7.632;2023-04-25T19:08:54;9.90;99.90
16060;DHT22;8134;49.552;7.632;2023-04-25T19:11:20;9.80;99.90
16060;DHT22;8134;49.552;7.632;2023-04-25T19:13:47;9.80;99.90
16060;DHT22;8134;49.552;7.632;2023-04-25T19:16:14;9.80;99.90
16060;DHT22;8134;49.552;7.632;2023-04-25T19:18:40;9.70;99.90
16060;DHT22;8134;49.552;7.632;2023-04-25T19:21:06;9.80;99.90
16060;DHT22;8134;49.552;7.632;2023-04-25T19:23:33;9.70;99.90
16060;DHT22;8134;49.552;7.632;2023-04-25T19:26:00;9.70;99.90
16060;DHT22;8134;49.552;7.632;2023-04-25T19:28:26;9.60;99.90
16060;DHT22;8134;49.552;7.632;2023-04-25T19:30:54;9.60;99.90
16060;DHT22;8134;49.552;7.632;2023-04-25T19:33:21;9.60;99.90
16060;DHT22;8134;49.552;7.632;2023-04-25T19:35:48;9.60;99.90
16060;DHT22;8134;49.552;7.632;2023-04-25T19:38:14;9.50;99.90
16060;DHT22;8134;49.552;7.632;2023-04-25T19:40:41;9.40;99.90
16060;DHT22;8134;49.552;7.632;2023-04-25T19:43:07;9.40;99.90
16060;DHT22;8134;49.552;7.632;2023-04-25T19:45:34;9.40;99.90
16060;DHT22;8134;49.552;7.632;2023-04-25T19:48:01;9.40;99.90
16060;DHT22;8134;49.552;7.632;2023-04-25T19:50:28;9.30;99.90
16060;DHT22;8134;49.552;7.632;2023-04-25T19:52:54;9.20;99.90
16060;DHT22;8134;49.552;7.632;2023-04-25T19:55:20;9.20;99.90
16060;DHT22;8134;49.552;7.632;2023-04-25T19:57:47;9.10;99.90
16060;DHT22;8134;49.552;7.632;2023-04-25T20:00:14;9.10;99.90
16060;DHT22;8134;49.552;7.632;2023-04-25T20:02:40;9.10;99.90
16060;DHT22;8134;49.552;7.632;2023-04-25T20:05:07;8.90;99.90
16060;DHT22;8134;49.552;7.632;2023-04-25T20:07:33;8.90;99.90
16060;DHT22;8134;49.552;7.632;2023-04-25T20:09:59;8.90;99.90
16060;DHT22;8134;49.552;7.632;2023-04-25T20:12:26;8.90;99.90
16060;DHT22;8134;49.552;7.632;2023-04-25T20:14:51;8.70;99.90
16060;DHT22;8134;49.552;7.632;2023-04-25T20:17:17;8.70;99.90
16060;DHT22;8134;49.552;7.632;2023-04-25T20:19:42;8.60;99.90
16060;DHT22;8134;49.552;7.632;2023-04-25T20:22:08;8.50;99.90
16060;DHT22;8134;49.552;7.632;2023-04-25T20:24:33;8.50;99.90
16060;DHT22;8134;49.552;7.632;2023-04-25T20:26:59;8.40;99.90
16060;DHT22;8134;49.552;7.632;2023-04-25T20:29:25;8.20;99.90
16060;DHT22;8134;49.552;7.632;2023-04-25T20:31:54;8.20;99.90
16060;DHT22;8134;49.552;7.632;2023-04-25T20:34:20;8.10;99.90
16060;DHT22;8134;49.552;7.632;2023-04-25T20:36:46;7.90;99.90
16060;DHT22;8134;49.552;7.632;2023-04-25T20:39:11;7.90;99.90
16060;DHT22;8134;49.552;7.632;2023-04-25T20:41:37;7.90;99.90
16060;DHT22;8134;49.552;7.632;2023-04-25T20:44:04;8.00;99.90
16060;DHT22;8134;49.552;7.632;2023-04-25T20:46:32;7.70;99.90
16060;DHT22;8134;49.552;7.632;2023-04-25T20:48:59;7.70;99.90
16060;DHT22;8134;49.552;7.632;2023-04-25T20:51:27;7.60;99.90
16060;DHT22;8134;49.552;7.632;2023-04-25T20:53:52;7.50;99.90
16060;DHT22;8134;49.552;7.632;2023-04-25T20:56:18;7.50;99.90
16060;DHT22;8134;49.552;7.632;2023-04-25T20:58:44;7.40;99.90
16060;DHT22;8134;49.552;7.632;2023-04-25T21:01:10;7.30;99.90
16060;DHT22;8134;49.552;7.632;2023-04-25T21:03:36;7.30;99.90
16060;DHT22;8134;49.552;7.632;2023-04-25T21:06:02;7.30;99.90
16060;DHT22;8134;49.552;7.632;2023-04-25T21:08:27;7.20;99.90
16060;DHT22;8134;49.552;7.632;2023-04-25T21:10:53;7.20;99.90
16060;DHT22;8134;49.552;7.632;2023-04-25T21:13:18;7.10;99.90
16060;DHT22;8134;49.552;7.632;2023-04-25T21:15:44;7.10;99.90
16060;DHT22;8134;49.552;7.632;2023-04-25T21:18:09;7.00;99.90
16060;DHT22;8134;49.552;7.632;2023-04-25T21:20:35;7.10;99.90
16060;DHT22;8134;49.552;7.632;2023-04-25T21:23:00;6.90;99.90
16060;DHT22;8134;49.552;7.632;2023-04-25T21:25:26;7.00;99.90
16060;DHT22;8134;49.552;7.632;2023-04-25T21:27:55;6.90;99.90
16060;DHT22;8134;49.552;7.632;2023-04-25T21:30:21;6.80;99.90
16060;DHT22;8134;49.552;7.632;2023-04-25T21:32:48;6.80;99.90
16060;DHT22;8134;49.552;7.632;2023-04-25T21:35:17;6.70;99.90
16060;DHT22;8134;49.552;7.632;2023-04-25T21:37:43;6.60;99.90
16060;DHT22;8134;49.552;7.632;2023-04-25T21:40:09;6.60;99.90
16060;DHT22;8134;49.552;7.632;2023-04-25T21:42:35;6.60;99.90
16060;DHT22;8134;49.552;7.632;2023-04-25T21:45:01;6.60;99.90
16060;DHT22;8134;49.552;7.632;2023-04-25T21:47:27;6.70;99.90
16060;DHT22;8134;49.552;7.632;2023-04-25T21:49:52;6.50;99.90
16060;DHT22;8134;49.552;7.632;2023-04-25T21:52:18;6.50;99.90
16060;DHT22;8134;49.552;7.632;2023-04-25T21:54:43;6.40;99.90
16060;DHT22;8134;49.552;7.632;2023-04-25T21:57:09;6.30;99.90
16060;DHT22;8134;49.552;7.632;2023-04-25T21:59:35;6.30;99.90
16060;DHT22;8134;49.552;7.632;2023-04-25T22:02:00;6.30;99.90
16060;DHT22;8134;49.552;7.632;2023-04-25T22:04:26;6.30;99.90
16060;DHT22;8134;49.552;7.632;2023-04-25T22:06:51;6.20;99.90
16060;DHT22;8134;49.552;7.632;2023-04-25T22:09:17;6.20;99.90
16060;DHT22;8134;49.552;7.632;2023-04-25T22:11:43;6.10;99.90
16060;DHT22;8134;49.552;7.632;2023-04-25T22:14:09;6.90;99.90
16060;DHT22;8134;49.552;7.632;2023-04-25T22:16:35;6.10;99.90
16060;DHT22;8134;49.552;7.632;2023-04-25T22:19:01;6.10;99.90
16060;DHT22;8134;49.552;7.632;2023-04-25T22:21:27;6.20;99.90
16060;DHT22;8134;49.552;7.632;2023-04-25T22:23:52;6.20;99.90
16060;DHT22;8134;49.552;7.632;2023-04-25T22:26:18;6.00;99.90
16060;DHT22;8134;49.552;7.632;2023-04-25T22:28:45;6.00;99.90
16060;DHT22;8134;49.552;7.632;2023-04-25T22:31:10;5.90;99.90
16060;DHT22;8134;49.552;7.632;2023-04-25T22:33:36;5.90;99.90
16060;DHT22;8134;49.552;7.632;2023-04-25T22:36:01;5.90;99.90
16060;DHT22;8134;49.552;7.632;2023-04-25T22:38:27;5.80;99.90
16060;DHT22;8134;49.552;7.632;2023-04-25T22:40:53;5.80;99.90
16060;DHT22;8134;49.552;7.632;2023-04-25T22:43:18;5.90;99.90
16060;DHT22;8134;49.552;7.632;2023-04-25T22:45:45;5.80;99.90